sensor_id;sensor_type;location;lat;lon;timestamp;temperature;humidity
18575;DHT22;9417;16.484;102.872;2023-03-31T00:00:28;25.70;92.70
18575;DHT22;9417;16.484;102.872;2023-03-31T00:02:35;25.80;92.80
18575;DHT22;9417;16.484;102.872;2023-03-31T00:04:45;25.80;92.90
18575;DHT22;9417;16.484;102.872;2023-03-31T00:06:56;25.80;93.00
18575;DHT22;9417;16.484;102.872;2023-03-31T00:09:06;25.90;93.00
18575;DHT22;9417;16.484;102.872;2023-03-31T00:11:14;26.00;93.10
18575;DHT22;9417;16.484;102.872;2023-03-31T00:13:22;25.90;93.20
18575;DHT22;9417;16.484;102.872;2023-03-31T00:15:29;26.00;93.30
18575;DHT22;9417;16.484;102.872;2023-03-31T00:17:36;26.00;93.50
18575;DHT22;9417;16.484;102.872;2023-03-31T00:19:43;26.10;93.60
18575;DHT22;9417;16.484;102.872;2023-03-31T00:21:53;26.10;93.60
18575;DHT22;9417;16.484;102.872;2023-03-31T00:24:02;26.10;93.50
18575;DHT22;9417;16.484;102.872;2023-03-31T00:26:11;26.20;93.30
18575;DHT22;9417;16.484;102.872;2023-03-31T00:28:18;26.20;93.00
18575;DHT22;9417;16.484;102.872;2023-03-31T00:30:25;26.30;92.60
18575;DHT22;9417;16.484;102.872;2023-03-31T00:32:34;26.30;92.30
18575;DHT22;9417;16.484;102.872;2023-03-31T00:34:41;26.40;91.90
18575;DHT22;9417;16.484;102.872;2023-03-31T00:36:48;26.40;91.60
18575;DHT22;9417;16.484;102.872;2023-03-31T00:39:02;26.50;91.40
18575;DHT22;9417;16.484;102.872;2023-03-31T00:41:14;26.50;91.10
18575;DHT22;9417;16.484;102.872;2023-03-31T00:43:28;26.60;90.80
18575;DHT22;9417;16.484;102.872;2023-03-31T00:45:36;26.60;90.60
18575;DHT22;9417;16.484;102.872;2023-03-31T00:47:45;26.70;90.40
18575;DHT22;9417;16.484;102.872;2023-03-31T00:49:54;26.80;90.10
18575;DHT22;9417;16.484;102.872;2023-03-31T00:52:05;26.80;89.70
18575;DHT22;9417;16.484;102.872;2023-03-31T00:54:13;26.90;89.60
18575;DHT22;9417;16.484;102.872;2023-03-31T00:56:27;26.90;89.10
18575;DHT22;9417;16.484;102.872;2023-03-31T00:58:36;27.00;88.30
18575;DHT22;9417;16.484;102.872;2023-03-31T01:00:47;27.10;87.60
18575;DHT22;9417;16.484;102.872;2023-03-31T01:03:00;27.10;87.40
18575;DHT22;9417;16.484;102.872;2023-03-31T01:05:09;27.20;87.00
18575;DHT22;9417;16.484;102.872;2023-03-31T01:07:19;27.30;86.70
18575;DHT22;9417;16.484;102.872;2023-03-31T01:09:30;27.30;86.10
18575;DHT22;9417;16.484;102.872;2023-03-31T01:11:44;27.40;85.70
18575;DHT22;9417;16.484;102.872;2023-03-31T01:13:53;27.40;84.60
18575;DHT22;9417;16.484;102.872;2023-03-31T01:16:01;27.50;84.60
18575;DHT22;9417;16.484;102.872;2023-03-31T01:18:11;27.60;84.30
18575;DHT22;9417;16.484;102.872;2023-03-31T01:20:26;27.60;84.10
18575;DHT22;9417;16.484;102.872;2023-03-31T01:23:01;27.70;83.90
18575;DHT22;9417;16.484;102.872;2023-03-31T01:28:07;27.80;81.70
18575;DHT22;9417;16.484;102.872;2023-03-31T01:33:23;28.00;79.50
18575;DHT22;9417;16.484;102.872;2023-03-31T01:36:10;28.10;80.70
18575;DHT22;9417;16.484;102.872;2023-03-31T01:41:27;28.20;78.70
18575;DHT22;9417;16.484;102.872;2023-03-31T01:43:42;28.40;78.00
18575;DHT22;9417;16.484;102.872;2023-03-31T01:45:56;28.40;77.70
18575;DHT22;9417;16.484;102.872;2023-03-31T01:48:09;28.50;77.30
18575;DHT22;9417;16.484;102.872;2023-03-31T01:50:23;28.60;77.80
18575;DHT22;9417;16.484;102.872;2023-03-31T01:52:39;28.60;77.30
18575;DHT22;9417;16.484;102.872;2023-03-31T01:54:50;28.70;77.40
18575;DHT22;9417;16.484;102.872;2023-03-31T01:57:05;28.70;77.30
18575;DHT22;9417;16.484;102.872;2023-03-31T01:59:18;28.80;74.50
18575;DHT22;9417;16.484;102.872;2023-03-31T02:01:33;28.80;75.70
18575;DHT22;9417;16.484;102.872;2023-03-31T02:03:47;29.00;76.60
18575;DHT22;9417;16.484;102.872;2023-03-31T02:05:57;29.00;74.70
18575;DHT22;9417;16.484;102.872;2023-03-31T02:08:11;29.00;73.20
18575;DHT22;9417;16.484;102.872;2023-03-31T02:10:20;29.20;74.00
18575;DHT22;9417;16.484;102.872;2023-03-31T02:12:36;29.20;74.50
18575;DHT22;9417;16.484;102.872;2023-03-31T02:14:46;29.30;73.80
18575;DHT22;9417;16.484;102.872;2023-03-31T02:16:57;29.40;72.40
18575;DHT22;9417;16.484;102.872;2023-03-31T02:19:06;29.40;71.60
18575;DHT22;9417;16.484;102.872;2023-03-31T02:21:15;29.50;71.30
18575;DHT22;9417;16.484;102.872;2023-03-31T02:23:25;29.50;72.00
18575;DHT22;9417;16.484;102.872;2023-03-31T02:25:37;29.60;72.90
18575;DHT22;9417;16.484;102.872;2023-03-31T02:27:54;29.60;72.40
18575;DHT22;9417;16.484;102.872;2023-03-31T02:30:02;29.70;72.30
18575;DHT22;9417;16.484;102.872;2023-03-31T02:32:14;29.70;70.90
18575;DHT22;9417;16.484;102.872;2023-03-31T02:34:22;29.80;71.30
18575;DHT22;9417;16.484;102.872;2023-03-31T02:36:30;29.90;71.80
18575;DHT22;9417;16.484;102.872;2023-03-31T02:38:41;30.00;71.40
18575;DHT22;9417;16.484;102.872;2023-03-31T02:40:49;30.10;71.00
18575;DHT22;9417;16.484;102.872;2023-03-31T02:42:58;30.20;70.50
18575;DHT22;9417;16.484;102.872;2023-03-31T02:45:37;30.30;70.10
18575;DHT22;9417;16.484;102.872;2023-03-31T02:47:45;30.30;70.30
18575;DHT22;9417;16.484;102.872;2023-03-31T02:49:54;30.40;70.00
18575;DHT22;9417;16.484;102.872;2023-03-31T02:52:20;30.50;70.70
18575;DHT22;9417;16.484;102.872;2023-03-31T02:54:49;30.60;70.20
18575;DHT22;9417;16.484;102.872;2023-03-31T02:57:27;30.60;69.40
18575;DHT22;9417;16.484;102.872;2023-03-31T02:59:48;30.70;68.00
18575;DHT22;9417;16.484;102.872;2023-03-31T03:02:10;30.80;68.30
18575;DHT22;9417;16.484;102.872;2023-03-31T03:04:36;30.90;68.90
18575;DHT22;9417;16.484;102.872;2023-03-31T03:06:53;31.00;68.40
18575;DHT22;9417;16.484;102.872;2023-03-31T03:09:09;31.10;68.20
18575;DHT22;9417;16.484;102.872;2023-03-31T03:11:26;31.20;68.70
18575;DHT22;9417;16.484;102.872;2023-03-31T03:13:44;31.20;66.40
18575;DHT22;9417;16.484;102.872;2023-03-31T03:15:59;31.20;68.70
18575;DHT22;9417;16.484;102.872;2023-03-31T03:18:07;31.30;67.80
18575;DHT22;9417;16.484;102.872;2023-03-31T03:20:16;31.40;68.00
18575;DHT22;9417;16.484;102.872;2023-03-31T03:22:25;31.50;67.50
18575;DHT22;9417;16.484;102.872;2023-03-31T03:24:32;31.50;66.70
18575;DHT22;9417;16.484;102.872;2023-03-31T03:26:40;31.70;67.20
18575;DHT22;9417;16.484;102.872;2023-03-31T03:28:48;31.70;65.90
18575;DHT22;9417;16.484;102.872;2023-03-31T03:30:57;31.70;64.70
18575;DHT22;9417;16.484;102.872;2023-03-31T03:33:04;31.80;64.70
18575;DHT22;9417;16.484;102.872;2023-03-31T03:35:11;31.90;64.60
18575;DHT22;9417;16.484;102.872;2023-03-31T03:37:19;32.00;64.30
18575;DHT22;9417;16.484;102.872;2023-03-31T03:39:26;32.00;63.20
18575;DHT22;9417;16.484;102.872;2023-03-31T03:41:33;32.10;64.90
18575;DHT22;9417;16.484;102.872;2023-03-31T03:43:40;32.20;64.80
18575;DHT22;9417;16.484;102.872;2023-03-31T03:45:48;32.30;64.10
18575;DHT22;9417;16.484;102.872;2023-03-31T03:47:57;32.30;64.30
18575;DHT22;9417;16.484;102.872;2023-03-31T03:50:05;32.40;64.10
18575;DHT22;9417;16.484;102.872;2023-03-31T03:52:12;32.50;64.10
18575;DHT22;9417;16.484;102.872;2023-03-31T03:54:19;32.50;64.20
18575;DHT22;9417;16.484;102.872;2023-03-31T03:56:26;32.60;63.90
18575;DHT22;9417;16.484;102.872;2023-03-31T03:58:34;32.60;64.30
18575;DHT22;9417;16.484;102.872;2023-03-31T04:00:41;32.70;64.20
18575;DHT22;9417;16.484;102.872;2023-03-31T04:02:49;32.80;63.30
18575;DHT22;9417;16.484;102.872;2023-03-31T04:04:58;32.90;63.10
18575;DHT22;9417;16.484;102.872;2023-03-31T04:07:05;33.00;61.90
18575;DHT22;9417;16.484;102.872;2023-03-31T04:09:12;33.00;61.30
18575;DHT22;9417;16.484;102.872;2023-03-31T04:11:20;33.10;62.00
18575;DHT22;9417;16.484;102.872;2023-03-31T04:13:27;33.20;62.20
18575;DHT22;9417;16.484;102.872;2023-03-31T04:15:34;33.20;62.60
18575;DHT22;9417;16.484;102.872;2023-03-31T04:17:41;33.30;62.50
18575;DHT22;9417;16.484;102.872;2023-03-31T04:19:56;33.30;62.70
18575;DHT22;9417;16.484;102.872;2023-03-31T04:22:08;33.40;62.30
18575;DHT22;9417;16.484;102.872;2023-03-31T04:24:19;33.50;60.20
18575;DHT22;9417;16.484;102.872;2023-03-31T04:26:27;33.50;60.30
18575;DHT22;9417;16.484;102.872;2023-03-31T04:28:43;33.60;61.40
18575;DHT22;9417;16.484;102.872;2023-03-31T04:30:54;33.60;60.60
18575;DHT22;9417;16.484;102.872;2023-03-31T04:33:02;33.60;61.00
18575;DHT22;9417;16.484;102.872;2023-03-31T04:35:11;33.70;61.30
18575;DHT22;9417;16.484;102.872;2023-03-31T04:37:19;33.70;61.10
18575;DHT22;9417;16.484;102.872;2023-03-31T04:39:26;33.70;59.40
18575;DHT22;9417;16.484;102.872;2023-03-31T04:41:34;33.80;60.90
18575;DHT22;9417;16.484;102.872;2023-03-31T04:43:41;33.90;59.80
18575;DHT22;9417;16.484;102.872;2023-03-31T04:45:49;33.90;60.20
18575;DHT22;9417;16.484;102.872;2023-03-31T04:47:56;33.90;59.80
18575;DHT22;9417;16.484;102.872;2023-03-31T04:50:04;34.00;60.20
18575;DHT22;9417;16.484;102.872;2023-03-31T04:52:17;34.10;60.40
18575;DHT22;9417;16.484;102.872;2023-03-31T04:54:24;34.10;59.40
18575;DHT22;9417;16.484;102.872;2023-03-31T04:56:31;34.10;60.50
18575;DHT22;9417;16.484;102.872;2023-03-31T04:58:38;34.10;59.80
18575;DHT22;9417;16.484;102.872;2023-03-31T05:00:45;34.10;60.00
18575;DHT22;9417;16.484;102.872;2023-03-31T05:02:53;34.10;60.50
18575;DHT22;9417;16.484;102.872;2023-03-31T05:05:00;34.20;60.90
18575;DHT22;9417;16.484;102.872;2023-03-31T05:07:08;34.30;60.00
18575;DHT22;9417;16.484;102.872;2023-03-31T05:09:16;34.40;59.50
18575;DHT22;9417;16.484;102.872;2023-03-31T05:11:24;34.40;58.90
18575;DHT22;9417;16.484;102.872;2023-03-31T05:13:32;34.40;58.70
18575;DHT22;9417;16.484;102.872;2023-03-31T05:15:40;34.40;57.70
18575;DHT22;9417;16.484;102.872;2023-03-31T05:17:48;34.50;58.40
18575;DHT22;9417;16.484;102.872;2023-03-31T05:19:56;34.40;59.20
18575;DHT22;9417;16.484;102.872;2023-03-31T05:22:03;34.40;58.10
18575;DHT22;9417;16.484;102.872;2023-03-31T05:24:11;34.40;57.10
18575;DHT22;9417;16.484;102.872;2023-03-31T05:26:19;34.40;58.80
18575;DHT22;9417;16.484;102.872;2023-03-31T05:28:28;34.40;60.10
18575;DHT22;9417;16.484;102.872;2023-03-31T05:30:35;34.50;58.20
18575;DHT22;9417;16.484;102.872;2023-03-31T05:32:43;34.50;58.40
18575;DHT22;9417;16.484;102.872;2023-03-31T05:34:50;34.50;58.70
18575;DHT22;9417;16.484;102.872;2023-03-31T05:37:01;34.50;59.30
18575;DHT22;9417;16.484;102.872;2023-03-31T05:39:08;34.50;59.10
18575;DHT22;9417;16.484;102.872;2023-03-31T05:41:15;34.50;58.30
18575;DHT22;9417;16.484;102.872;2023-03-31T05:43:25;34.50;58.70
18575;DHT22;9417;16.484;102.872;2023-03-31T05:45:32;34.50;58.30
18575;DHT22;9417;16.484;102.872;2023-03-31T05:47:39;34.50;59.00
18575;DHT22;9417;16.484;102.872;2023-03-31T05:49:47;34.60;58.80
18575;DHT22;9417;16.484;102.872;2023-03-31T05:51:54;34.60;58.80
18575;DHT22;9417;16.484;102.872;2023-03-31T05:54:01;34.60;58.60
18575;DHT22;9417;16.484;102.872;2023-03-31T05:56:09;34.70;58.20
18575;DHT22;9417;16.484;102.872;2023-03-31T05:58:17;34.60;58.70
18575;DHT22;9417;16.484;102.872;2023-03-31T06:00:26;34.70;59.60
18575;DHT22;9417;16.484;102.872;2023-03-31T06:02:33;34.70;56.00
18575;DHT22;9417;16.484;102.872;2023-03-31T06:04:40;34.60;56.70
18575;DHT22;9417;16.484;102.872;2023-03-31T06:06:48;34.60;56.90
18575;DHT22;9417;16.484;102.872;2023-03-31T06:08:55;34.60;57.70
18575;DHT22;9417;16.484;102.872;2023-03-31T06:11:04;34.60;58.20
18575;DHT22;9417;16.484;102.872;2023-03-31T06:13:12;34.60;58.10
18575;DHT22;9417;16.484;102.872;2023-03-31T06:15:19;34.70;57.50
18575;DHT22;9417;16.484;102.872;2023-03-31T06:17:28;34.70;57.30
18575;DHT22;9417;16.484;102.872;2023-03-31T06:19:35;34.70;57.20
18575;DHT22;9417;16.484;102.872;2023-03-31T06:21:43;34.70;57.80
18575;DHT22;9417;16.484;102.872;2023-03-31T06:23:50;34.60;57.40
18575;DHT22;9417;16.484;102.872;2023-03-31T06:26:01;34.50;57.20
18575;DHT22;9417;16.484;102.872;2023-03-31T06:28:10;34.50;57.60
18575;DHT22;9417;16.484;102.872;2023-03-31T06:30:17;34.60;56.30
18575;DHT22;9417;16.484;102.872;2023-03-31T06:32:24;34.60;55.60
18575;DHT22;9417;16.484;102.872;2023-03-31T06:34:33;34.60;55.50
18575;DHT22;9417;16.484;102.872;2023-03-31T06:36:40;34.70;56.10
18575;DHT22;9417;16.484;102.872;2023-03-31T06:38:48;34.70;55.40
18575;DHT22;9417;16.484;102.872;2023-03-31T06:40:55;34.80;54.90
18575;DHT22;9417;16.484;102.872;2023-03-31T06:43:02;34.80;54.30
18575;DHT22;9417;16.484;102.872;2023-03-31T06:45:10;34.80;54.70
18575;DHT22;9417;16.484;102.872;2023-03-31T06:47:17;34.80;54.90
18575;DHT22;9417;16.484;102.872;2023-03-31T06:49:25;34.80;55.30
18575;DHT22;9417;16.484;102.872;2023-03-31T06:51:33;34.80;55.20
18575;DHT22;9417;16.484;102.872;2023-03-31T06:53:40;34.80;55.20
18575;DHT22;9417;16.484;102.872;2023-03-31T06:55:47;34.90;55.40
18575;DHT22;9417;16.484;102.872;2023-03-31T06:57:55;34.90;55.20
18575;DHT22;9417;16.484;102.872;2023-03-31T07:00:02;34.90;54.10
18575;DHT22;9417;16.484;102.872;2023-03-31T07:02:11;34.90;51.90
18575;DHT22;9417;16.484;102.872;2023-03-31T07:04:18;34.90;53.90
18575;DHT22;9417;16.484;102.872;2023-03-31T07:06:26;34.90;54.50
18575;DHT22;9417;16.484;102.872;2023-03-31T07:08:34;34.90;54.90
18575;DHT22;9417;16.484;102.872;2023-03-31T07:10:42;34.90;55.20
18575;DHT22;9417;16.484;102.872;2023-03-31T07:12:50;34.90;55.20
18575;DHT22;9417;16.484;102.872;2023-03-31T07:14:57;34.90;54.90
18575;DHT22;9417;16.484;102.872;2023-03-31T07:17:04;34.90;54.70
18575;DHT22;9417;16.484;102.872;2023-03-31T07:19:11;34.90;55.30
18575;DHT22;9417;16.484;102.872;2023-03-31T07:21:19;34.90;55.20
18575;DHT22;9417;16.484;102.872;2023-03-31T07:23:26;34.90;54.50
18575;DHT22;9417;16.484;102.872;2023-03-31T07:25:35;34.90;54.80
18575;DHT22;9417;16.484;102.872;2023-03-31T07:27:42;34.90;55.10
18575;DHT22;9417;16.484;102.872;2023-03-31T07:29:49;34.90;53.60
18575;DHT22;9417;16.484;102.872;2023-03-31T07:31:57;35.00;53.50
18575;DHT22;9417;16.484;102.872;2023-03-31T07:34:04;35.10;53.20
18575;DHT22;9417;16.484;102.872;2023-03-31T07:36:11;35.10;53.60
18575;DHT22;9417;16.484;102.872;2023-03-31T07:38:19;35.10;53.20
18575;DHT22;9417;16.484;102.872;2023-03-31T07:40:28;35.10;53.50
18575;DHT22;9417;16.484;102.872;2023-03-31T07:42:37;35.10;54.40
18575;DHT22;9417;16.484;102.872;2023-03-31T07:44:45;35.10;54.70
18575;DHT22;9417;16.484;102.872;2023-03-31T07:46:52;35.10;50.10
18575;DHT22;9417;16.484;102.872;2023-03-31T07:48:59;35.10;50.50
18575;DHT22;9417;16.484;102.872;2023-03-31T07:51:07;35.10;51.70
18575;DHT22;9417;16.484;102.872;2023-03-31T07:53:14;35.00;52.40
18575;DHT22;9417;16.484;102.872;2023-03-31T07:55:21;35.00;52.50
18575;DHT22;9417;16.484;102.872;2023-03-31T07:57:30;35.10;52.70
18575;DHT22;9417;16.484;102.872;2023-03-31T07:59:39;35.00;53.10
18575;DHT22;9417;16.484;102.872;2023-03-31T08:01:46;35.00;53.50
18575;DHT22;9417;16.484;102.872;2023-03-31T08:03:54;35.00;54.00
18575;DHT22;9417;16.484;102.872;2023-03-31T08:06:01;34.90;53.10
18575;DHT22;9417;16.484;102.872;2023-03-31T08:08:08;34.90;53.50
18575;DHT22;9417;16.484;102.872;2023-03-31T08:10:17;34.80;53.30
18575;DHT22;9417;16.484;102.872;2023-03-31T08:12:24;34.70;53.60
18575;DHT22;9417;16.484;102.872;2023-03-31T08:14:32;34.70;53.70
18575;DHT22;9417;16.484;102.872;2023-03-31T08:16:46;34.60;54.80
18575;DHT22;9417;16.484;102.872;2023-03-31T08:18:53;34.60;55.20
18575;DHT22;9417;16.484;102.872;2023-03-31T08:21:17;34.60;54.60
18575;DHT22;9417;16.484;102.872;2023-03-31T08:23:27;34.60;54.40
18575;DHT22;9417;16.484;102.872;2023-03-31T08:25:34;34.60;54.60
18575;DHT22;9417;16.484;102.872;2023-03-31T08:27:41;34.60;53.60
18575;DHT22;9417;16.484;102.872;2023-03-31T08:29:48;34.70;53.30
18575;DHT22;9417;16.484;102.872;2023-03-31T08:31:57;34.70;52.70
18575;DHT22;9417;16.484;102.872;2023-03-31T08:34:05;34.70;52.80
18575;DHT22;9417;16.484;102.872;2023-03-31T08:36:12;34.60;52.90
18575;DHT22;9417;16.484;102.872;2023-03-31T08:38:20;34.60;53.30
18575;DHT22;9417;16.484;102.872;2023-03-31T08:40:28;34.60;53.30
18575;DHT22;9417;16.484;102.872;2023-03-31T08:42:39;34.70;53.50
18575;DHT22;9417;16.484;102.872;2023-03-31T08:44:56;34.70;54.10
18575;DHT22;9417;16.484;102.872;2023-03-31T08:47:09;34.70;54.40
18575;DHT22;9417;16.484;102.872;2023-03-31T08:49:20;34.60;54.50
18575;DHT22;9417;16.484;102.872;2023-03-31T08:51:28;34.60;54.70
18575;DHT22;9417;16.484;102.872;2023-03-31T08:53:40;34.60;54.80
18575;DHT22;9417;16.484;102.872;2023-03-31T08:55:50;34.50;54.40
18575;DHT22;9417;16.484;102.872;2023-03-31T08:58:00;34.40;54.20
18575;DHT22;9417;16.484;102.872;2023-03-31T09:00:14;34.40;54.30
18575;DHT22;9417;16.484;102.872;2023-03-31T09:02:29;34.30;54.80
18575;DHT22;9417;16.484;102.872;2023-03-31T09:04:48;34.30;55.10
18575;DHT22;9417;16.484;102.872;2023-03-31T09:07:00;34.20;54.70
18575;DHT22;9417;16.484;102.872;2023-03-31T09:09:15;34.20;55.00
18575;DHT22;9417;16.484;102.872;2023-03-31T09:11:33;34.20;55.60
18575;DHT22;9417;16.484;102.872;2023-03-31T09:13:54;34.20;56.10
18575;DHT22;9417;16.484;102.872;2023-03-31T09:16:06;34.20;56.50
18575;DHT22;9417;16.484;102.872;2023-03-31T09:18:32;34.20;56.30
18575;DHT22;9417;16.484;102.872;2023-03-31T09:20:43;34.20;55.90
18575;DHT22;9417;16.484;102.872;2023-03-31T09:22:56;34.20;54.80
18575;DHT22;9417;16.484;102.872;2023-03-31T09:25:10;34.30;55.10
18575;DHT22;9417;16.484;102.872;2023-03-31T09:27:19;34.40;55.10
18575;DHT22;9417;16.484;102.872;2023-03-31T09:29:30;34.40;55.20
18575;DHT22;9417;16.484;102.872;2023-03-31T09:31:42;34.40;55.40
18575;DHT22;9417;16.484;102.872;2023-03-31T09:33:54;34.50;55.90
18575;DHT22;9417;16.484;102.872;2023-03-31T09:36:13;34.40;55.20
18575;DHT22;9417;16.484;102.872;2023-03-31T09:38:21;34.40;55.10
18575;DHT22;9417;16.484;102.872;2023-03-31T09:40:28;34.40;54.80
18575;DHT22;9417;16.484;102.872;2023-03-31T09:42:36;34.40;54.50
18575;DHT22;9417;16.484;102.872;2023-03-31T09:44:45;34.40;54.00
18575;DHT22;9417;16.484;102.872;2023-03-31T09:46:54;34.40;53.90
18575;DHT22;9417;16.484;102.872;2023-03-31T09:49:05;34.30;53.70
18575;DHT22;9417;16.484;102.872;2023-03-31T09:51:19;34.40;53.90
18575;DHT22;9417;16.484;102.872;2023-03-31T09:53:33;34.30;54.10
18575;DHT22;9417;16.484;102.872;2023-03-31T09:55:44;34.30;54.40
18575;DHT22;9417;16.484;102.872;2023-03-31T10:00:59;34.10;50.40
18575;DHT22;9417;16.484;102.872;2023-03-31T10:03:11;33.70;49.40
18575;DHT22;9417;16.484;102.872;2023-03-31T10:05:23;33.10;49.60
18575;DHT22;9417;16.484;102.872;2023-03-31T10:07:32;32.70;49.10
18575;DHT22;9417;16.484;102.872;2023-03-31T10:09:40;32.30;51.20
18575;DHT22;9417;16.484;102.872;2023-03-31T10:11:56;32.00;51.70
18575;DHT22;9417;16.484;102.872;2023-03-31T10:14:09;31.70;51.90
18575;DHT22;9417;16.484;102.872;2023-03-31T10:16:26;31.60;52.90
18575;DHT22;9417;16.484;102.872;2023-03-31T10:18:35;31.40;53.50
18575;DHT22;9417;16.484;102.872;2023-03-31T10:20:47;31.30;53.80
18575;DHT22;9417;16.484;102.872;2023-03-31T10:22:55;31.20;53.80
18575;DHT22;9417;16.484;102.872;2023-03-31T10:25:13;31.10;53.90
18575;DHT22;9417;16.484;102.872;2023-03-31T10:27:23;31.00;53.80
18575;DHT22;9417;16.484;102.872;2023-03-31T10:29:32;31.00;53.80
18575;DHT22;9417;16.484;102.872;2023-03-31T10:31:41;30.90;53.90
18575;DHT22;9417;16.484;102.872;2023-03-31T10:33:50;30.80;53.80
18575;DHT22;9417;16.484;102.872;2023-03-31T10:35:59;30.80;54.30
18575;DHT22;9417;16.484;102.872;2023-03-31T10:38:11;30.80;54.90
18575;DHT22;9417;16.484;102.872;2023-03-31T10:40:18;30.80;55.10
18575;DHT22;9417;16.484;102.872;2023-03-31T10:42:27;30.80;54.50
18575;DHT22;9417;16.484;102.872;2023-03-31T10:44:35;30.70;54.80
18575;DHT22;9417;16.484;102.872;2023-03-31T10:46:47;30.50;54.40
18575;DHT22;9417;16.484;102.872;2023-03-31T10:48:54;30.40;53.90
18575;DHT22;9417;16.484;102.872;2023-03-31T10:51:05;30.30;52.00
18575;DHT22;9417;16.484;102.872;2023-03-31T10:53:18;30.10;52.30
18575;DHT22;9417;16.484;102.872;2023-03-31T10:55:30;30.00;51.80
18575;DHT22;9417;16.484;102.872;2023-03-31T10:57:46;29.80;50.50
18575;DHT22;9417;16.484;102.872;2023-03-31T11:00:15;29.70;50.60
18575;DHT22;9417;16.484;102.872;2023-03-31T11:02:41;29.70;51.50
18575;DHT22;9417;16.484;102.872;2023-03-31T11:05:00;29.70;51.70
18575;DHT22;9417;16.484;102.872;2023-03-31T11:07:15;29.70;51.70
18575;DHT22;9417;16.484;102.872;2023-03-31T11:09:40;29.70;51.60
18575;DHT22;9417;16.484;102.872;2023-03-31T11:11:59;29.70;51.60
18575;DHT22;9417;16.484;102.872;2023-03-31T11:14:13;29.70;51.20
18575;DHT22;9417;16.484;102.872;2023-03-31T11:16:26;29.60;50.90
18575;DHT22;9417;16.484;102.872;2023-03-31T11:18:53;29.50;50.30
18575;DHT22;9417;16.484;102.872;2023-03-31T11:21:12;29.50;49.00
18575;DHT22;9417;16.484;102.872;2023-03-31T11:23:29;29.50;50.80
18575;DHT22;9417;16.484;102.872;2023-03-31T11:25:48;29.50;52.00
18575;DHT22;9417;16.484;102.872;2023-03-31T11:28:29;29.60;53.40
18575;DHT22;9417;16.484;102.872;2023-03-31T11:30:41;29.70;55.30
18575;DHT22;9417;16.484;102.872;2023-03-31T11:32:59;29.70;55.60
18575;DHT22;9417;16.484;102.872;2023-03-31T11:35:30;29.80;56.20
18575;DHT22;9417;16.484;102.872;2023-03-31T11:37:55;29.80;56.10
18575;DHT22;9417;16.484;102.872;2023-03-31T11:40:21;29.80;55.90
18575;DHT22;9417;16.484;102.872;2023-03-31T11:42:36;29.70;55.90
18575;DHT22;9417;16.484;102.872;2023-03-31T11:44:48;29.70;55.90
18575;DHT22;9417;16.484;102.872;2023-03-31T11:47:00;29.70;55.90
18575;DHT22;9417;16.484;102.872;2023-03-31T11:49:16;29.70;56.00
18575;DHT22;9417;16.484;102.872;2023-03-31T11:51:28;29.70;55.90
18575;DHT22;9417;16.484;102.872;2023-03-31T11:53:38;29.70;55.90
18575;DHT22;9417;16.484;102.872;2023-03-31T11:55:49;29.70;55.90
18575;DHT22;9417;16.484;102.872;2023-03-31T11:58:01;29.60;55.80
18575;DHT22;9417;16.484;102.872;2023-03-31T12:00:15;29.60;55.70
18575;DHT22;9417;16.484;102.872;2023-03-31T12:02:32;29.60;55.60
18575;DHT22;9417;16.484;102.872;2023-03-31T12:04:44;29.60;55.50
18575;DHT22;9417;16.484;102.872;2023-03-31T12:06:59;29.60;55.60
18575;DHT22;9417;16.484;102.872;2023-03-31T12:09:14;29.60;55.50
18575;DHT22;9417;16.484;102.872;2023-03-31T12:11:28;29.60;55.20
18575;DHT22;9417;16.484;102.872;2023-03-31T12:13:44;29.60;54.50
18575;DHT22;9417;16.484;102.872;2023-03-31T12:16:00;29.50;53.60
18575;DHT22;9417;16.484;102.872;2023-03-31T12:18:14;29.40;53.00
18575;DHT22;9417;16.484;102.872;2023-03-31T12:20:29;29.30;52.10
18575;DHT22;9417;16.484;102.872;2023-03-31T12:22:42;29.20;51.20
18575;DHT22;9417;16.484;102.872;2023-03-31T12:24:48;29.10;50.40
18575;DHT22;9417;16.484;102.872;2023-03-31T12:27:04;29.00;48.00
18575;DHT22;9417;16.484;102.872;2023-03-31T12:29:22;28.90;49.00
18575;DHT22;9417;16.484;102.872;2023-03-31T12:31:31;28.90;48.30
18575;DHT22;9417;16.484;102.872;2023-03-31T12:33:40;28.80;48.60
18575;DHT22;9417;16.484;102.872;2023-03-31T12:36:02;28.80;48.70
18575;DHT22;9417;16.484;102.872;2023-03-31T12:38:27;28.70;47.70
18575;DHT22;9417;16.484;102.872;2023-03-31T12:40:43;28.70;47.60
18575;DHT22;9417;16.484;102.872;2023-03-31T12:43:05;28.70;48.40
18575;DHT22;9417;16.484;102.872;2023-03-31T12:45:22;28.70;48.20
18575;DHT22;9417;16.484;102.872;2023-03-31T12:47:48;28.80;49.80
18575;DHT22;9417;16.484;102.872;2023-03-31T12:50:16;28.80;51.70
18575;DHT22;9417;16.484;102.872;2023-03-31T12:52:35;28.90;53.10
18575;DHT22;9417;16.484;102.872;2023-03-31T12:55:18;29.00;52.90
18575;DHT22;9417;16.484;102.872;2023-03-31T12:57:27;28.90;52.50
18575;DHT22;9417;16.484;102.872;2023-03-31T12:59:35;28.90;52.00
18575;DHT22;9417;16.484;102.872;2023-03-31T13:02:21;28.90;52.20
18575;DHT22;9417;16.484;102.872;2023-03-31T13:04:29;28.90;51.60
18575;DHT22;9417;16.484;102.872;2023-03-31T13:06:53;28.90;52.40
18575;DHT22;9417;16.484;102.872;2023-03-31T13:09:04;28.90;52.10
18575;DHT22;9417;16.484;102.872;2023-03-31T13:11:14;28.90;52.50
18575;DHT22;9417;16.484;102.872;2023-03-31T13:13:21;28.90;53.80
18575;DHT22;9417;16.484;102.872;2023-03-31T13:15:28;28.90;54.30
18575;DHT22;9417;16.484;102.872;2023-03-31T13:17:36;29.00;54.20
18575;DHT22;9417;16.484;102.872;2023-03-31T13:19:44;29.00;53.80
18575;DHT22;9417;16.484;102.872;2023-03-31T13:21:53;28.90;53.50
18575;DHT22;9417;16.484;102.872;2023-03-31T13:24:01;28.90;53.10
18575;DHT22;9417;16.484;102.872;2023-03-31T13:26:42;28.90;52.60
18575;DHT22;9417;16.484;102.872;2023-03-31T13:29:09;28.80;51.90
18575;DHT22;9417;16.484;102.872;2023-03-31T13:31:17;28.80;52.10
18575;DHT22;9417;16.484;102.872;2023-03-31T13:33:27;28.80;53.50
18575;DHT22;9417;16.484;102.872;2023-03-31T13:35:38;28.80;54.30
18575;DHT22;9417;16.484;102.872;2023-03-31T13:38:04;28.90;54.60
18575;DHT22;9417;16.484;102.872;2023-03-31T13:40:44;29.00;54.30
18575;DHT22;9417;16.484;102.872;2023-03-31T13:43:31;29.00;54.20
18575;DHT22;9417;16.484;102.872;2023-03-31T13:48:27;28.90;65.30
18575;DHT22;9417;16.484;102.872;2023-03-31T13:50:52;29.30;74.60
18575;DHT22;9417;16.484;102.872;2023-03-31T13:53:12;29.60;72.90